sensor_id;sensor_type;location;lat;lon;timestamp;temperature;humidity
16102;DHT22;56411;52.964;10.540;2023-04-01T00:01:58;8.70;99.90
16102;DHT22;56411;52.964;10.540;2023-04-01T00:04:25;8.70;99.90
16102;DHT22;56411;52.964;10.540;2023-04-01T00:06:55;8.70;99.90
16102;DHT22;56411;52.964;10.540;2023-04-01T00:09:22;8.70;99.90
16102;DHT22;56411;52.964;10.540;2023-04-01T00:11:49;8.70;99.90
16102;DHT22;56411;52.964;10.540;2023-04-01T00:14:16;8.70;99.90
16102;DHT22;56411;52.964;10.540;2023-04-01T00:16:44;8.80;99.90
16102;DHT22;56411;52.964;10.540;2023-04-01T00:19:11;8.80;99.90
16102;DHT22;56411;52.964;10.540;2023-04-01T00:21:48;8.80;99.90
16102;DHT22;56411;52.964;10.540;2023-04-01T00:24:17;8.80;99.90
16102;DHT22;56411;52.964;10.540;2023-04-01T00:26:44;8.80;99.90
16102;DHT22;56411;52.964;10.540;2023-04-01T00:29:13;8.90;99.90
16102;DHT22;56411;52.964;10.540;2023-04-01T00:31:40;8.90;99.90
16102;DHT22;56411;52.964;10.540;2023-04-01T00:34:08;8.90;99.90
16102;DHT22;56411;52.964;10.540;2023-04-01T00:36:35;8.90;99.90
16102;DHT22;56411;52.964;10.540;2023-04-01T00:39:02;8.90;99.90
16102;DHT22;56411;52.964;10.540;2023-04-01T00:41:30;8.80;99.90
16102;DHT22;56411;52.964;10.540;2023-04-01T00:44:15;8.90;99.90
16102;DHT22;56411;52.964;10.540;2023-04-01T00:46:43;8.90;99.90
16102;DHT22;56411;52.964;10.540;2023-04-01T00:49:11;8.90;99.90
16102;DHT22;56411;52.964;10.540;2023-04-01T00:51:39;8.90;99.90
16102;DHT22;56411;52.964;10.540;2023-04-01T00:54:08;8.90;99.90
16102;DHT22;56411;52.964;10.540;2023-04-01T00:56:41;8.80;99.90
16102;DHT22;56411;52.964;10.540;2023-04-01T00:59:13;8.80;99.90
16102;DHT22;56411;52.964;10.540;2023-04-01T01:01:41;8.80;99.90
16102;DHT22;56411;52.964;10.540;2023-04-01T01:04:24;8.80;99.90
16102;DHT22;56411;52.964;10.540;2023-04-01T01:06:59;8.80;99.90
16102;DHT22;56411;52.964;10.540;2023-04-01T01:09:34;8.80;99.90
16102;DHT22;56411;52.964;10.540;2023-04-01T01:12:13;8.80;99.90
16102;DHT22;56411;52.964;10.540;2023-04-01T01:14:52;8.90;99.90
16102;DHT22;56411;52.964;10.540;2023-04-01T01:17:34;8.90;99.90
16102;DHT22;56411;52.964;10.540;2023-04-01T01:20:27;8.80;99.90
16102;DHT22;56411;52.964;10.540;2023-04-01T01:23:13;8.90;99.90
16102;DHT22;56411;52.964;10.540;2023-04-01T01:25:49;8.80;99.90
16102;DHT22;56411;52.964;10.540;2023-04-01T01:28:30;8.90;99.90
16102;DHT22;56411;52.964;10.540;2023-04-01T01:31:07;8.80;99.90
16102;DHT22;56411;52.964;10.540;2023-04-01T01:33:57;8.80;99.90
16102;DHT22;56411;52.964;10.540;2023-04-01T01:36:32;8.80;99.90
16102;DHT22;56411;52.964;10.540;2023-04-01T01:39:01;8.80;99.90
16102;DHT22;56411;52.964;10.540;2023-04-01T01:41:29;8.80;99.90
16102;DHT22;56411;52.964;10.540;2023-04-01T01:43:59;8.80;99.90
16102;DHT22;56411;52.964;10.540;2023-04-01T01:46:30;8.80;99.90
16102;DHT22;56411;52.964;10.540;2023-04-01T01:48:58;8.80;99.90
16102;DHT22;56411;52.964;10.540;2023-04-01T01:51:29;8.80;99.90
16102;DHT22;56411;52.964;10.540;2023-04-01T01:53:56;8.80;99.90
16102;DHT22;56411;52.964;10.540;2023-04-01T01:56:26;8.80;99.90
16102;DHT22;56411;52.964;10.540;2023-04-01T01:58:58;8.80;99.90
16102;DHT22;56411;52.964;10.540;2023-04-01T02:01:27;8.80;99.90
16102;DHT22;56411;52.964;10.540;2023-04-01T02:03:55;8.80;99.90
16102;DHT22;56411;52.964;10.540;2023-04-01T02:06:26;8.80;99.90
16102;DHT22;56411;52.964;10.540;2023-04-01T02:08:56;8.80;99.90
16102;DHT22;56411;52.964;10.540;2023-04-01T02:11:28;8.80;99.90
16102;DHT22;56411;52.964;10.540;2023-04-01T02:14:02;8.80;99.90
16102;DHT22;56411;52.964;10.540;2023-04-01T02:16:34;8.80;99.90
16102;DHT22;56411;52.964;10.540;2023-04-01T02:19:04;8.80;99.90
16102;DHT22;56411;52.964;10.540;2023-04-01T02:21:33;8.80;99.90
16102;DHT22;56411;52.964;10.540;2023-04-01T02:24:06;8.80;99.90
16102;DHT22;56411;52.964;10.540;2023-04-01T02:26:35;8.80;99.90
16102;DHT22;56411;52.964;10.540;2023-04-01T02:29:03;8.70;99.90
16102;DHT22;56411;52.964;10.540;2023-04-01T02:31:31;8.80;99.90
16102;DHT22;56411;52.964;10.540;2023-04-01T02:33:59;8.70;99.90
16102;DHT22;56411;52.964;10.540;2023-04-01T02:36:27;8.70;99.90
16102;DHT22;56411;52.964;10.540;2023-04-01T02:38:56;8.60;99.90
16102;DHT22;56411;52.964;10.540;2023-04-01T02:41:29;8.60;99.90
16102;DHT22;56411;52.964;10.540;2023-04-01T02:43:56;8.60;99.90
16102;DHT22;56411;52.964;10.540;2023-04-01T02:46:25;8.60;99.90
16102;DHT22;56411;52.964;10.540;2023-04-01T02:48:52;8.60;99.90
16102;DHT22;56411;52.964;10.540;2023-04-01T02:51:19;8.60;99.90
16102;DHT22;56411;52.964;10.540;2023-04-01T02:53:46;8.60;99.90
16102;DHT22;56411;52.964;10.540;2023-04-01T02:56:13;8.60;99.90
16102;DHT22;56411;52.964;10.540;2023-04-01T02:58:41;8.60;99.90
16102;DHT22;56411;52.964;10.540;2023-04-01T03:01:08;8.60;99.90
16102;DHT22;56411;52.964;10.540;2023-04-01T03:03:36;8.60;99.90
16102;DHT22;56411;52.964;10.540;2023-04-01T03:06:05;8.60;99.90
16102;DHT22;56411;52.964;10.540;2023-04-01T03:08:32;8.60;99.90
16102;DHT22;56411;52.964;10.540;2023-04-01T03:10:59;8.50;99.90
16102;DHT22;56411;52.964;10.540;2023-04-01T03:13:26;8.50;99.90
16102;DHT22;56411;52.964;10.540;2023-04-01T03:15:55;8.50;99.90
16102;DHT22;56411;52.964;10.540;2023-04-01T03:18:22;8.50;99.90
16102;DHT22;56411;52.964;10.540;2023-04-01T03:20:49;8.50;99.90
16102;DHT22;56411;52.964;10.540;2023-04-01T03:23:17;8.50;99.90
16102;DHT22;56411;52.964;10.540;2023-04-01T03:25:45;8.50;99.90
16102;DHT22;56411;52.964;10.540;2023-04-01T03:28:12;8.40;99.90
16102;DHT22;56411;52.964;10.540;2023-04-01T03:30:39;8.50;99.90
16102;DHT22;56411;52.964;10.540;2023-04-01T03:33:08;8.50;99.90
16102;DHT22;56411;52.964;10.540;2023-04-01T03:35:35;8.50;99.90
16102;DHT22;56411;52.964;10.540;2023-04-01T03:38:02;8.50;99.90
16102;DHT22;56411;52.964;10.540;2023-04-01T03:40:29;8.50;99.90
16102;DHT22;56411;52.964;10.540;2023-04-01T03:42:58;8.60;99.90
16102;DHT22;56411;52.964;10.540;2023-04-01T03:45:25;8.60;99.90
16102;DHT22;56411;52.964;10.540;2023-04-01T03:47:52;8.60;99.90
16102;DHT22;56411;52.964;10.540;2023-04-01T03:50:22;8.60;99.90
16102;DHT22;56411;52.964;10.540;2023-04-01T03:52:49;8.60;99.90
16102;DHT22;56411;52.964;10.540;2023-04-01T03:55:16;8.60;99.90
16102;DHT22;56411;52.964;10.540;2023-04-01T03:57:44;8.60;99.90
16102;DHT22;56411;52.964;10.540;2023-04-01T04:00:12;8.60;99.90
16102;DHT22;56411;52.964;10.540;2023-04-01T04:02:40;8.70;99.90
16102;DHT22;56411;52.964;10.540;2023-04-01T04:05:08;8.70;99.90
16102;DHT22;56411;52.964;10.540;2023-04-01T04:07:37;8.70;99.90
16102;DHT22;56411;52.964;10.540;2023-04-01T04:10:05;8.70;99.90
16102;DHT22;56411;52.964;10.540;2023-04-01T04:12:32;8.70;99.90
16102;DHT22;56411;52.964;10.540;2023-04-01T04:14:59;8.70;99.90
16102;DHT22;56411;52.964;10.540;2023-04-01T04:17:26;8.70;99.90
16102;DHT22;56411;52.964;10.540;2023-04-01T04:19:53;8.70;99.90
16102;DHT22;56411;52.964;10.540;2023-04-01T04:22:20;8.70;99.90
16102;DHT22;56411;52.964;10.540;2023-04-01T04:24:48;8.70;99.90
16102;DHT22;56411;52.964;10.540;2023-04-01T04:27:15;8.70;99.90
16102;DHT22;56411;52.964;10.540;2023-04-01T04:29:43;8.70;99.90
16102;DHT22;56411;52.964;10.540;2023-04-01T04:32:10;8.70;99.90
16102;DHT22;56411;52.964;10.540;2023-04-01T04:34:37;8.70;99.90
16102;DHT22;56411;52.964;10.540;2023-04-01T04:37:04;8.80;99.90
16102;DHT22;56411;52.964;10.540;2023-04-01T04:39:31;8.80;99.90
16102;DHT22;56411;52.964;10.540;2023-04-01T04:41:59;8.80;99.90
16102;DHT22;56411;52.964;10.540;2023-04-01T04:44:26;8.70;99.90
16102;DHT22;56411;52.964;10.540;2023-04-01T04:46:53;8.70;99.90
16102;DHT22;56411;52.964;10.540;2023-04-01T04:49:21;8.80;99.90
16102;DHT22;56411;52.964;10.540;2023-04-01T04:51:48;8.70;99.90
16102;DHT22;56411;52.964;10.540;2023-04-01T04:54:15;8.70;99.90
16102;DHT22;56411;52.964;10.540;2023-04-01T04:56:42;8.70;99.90
16102;DHT22;56411;52.964;10.540;2023-04-01T04:59:11;8.70;99.90
16102;DHT22;56411;52.964;10.540;2023-04-01T05:01:38;8.70;99.90
16102;DHT22;56411;52.964;10.540;2023-04-01T05:04:06;8.70;99.90
16102;DHT22;56411;52.964;10.540;2023-04-01T05:06:33;8.70;99.90
16102;DHT22;56411;52.964;10.540;2023-04-01T05:09:03;8.80;99.90
16102;DHT22;56411;52.964;10.540;2023-04-01T05:11:30;8.80;99.90
16102;DHT22;56411;52.964;10.540;2023-04-01T05:13:57;8.70;99.90
16102;DHT22;56411;52.964;10.540;2023-04-01T05:16:26;8.70;99.90
16102;DHT22;56411;52.964;10.540;2023-04-01T05:18:53;8.70;99.90
16102;DHT22;56411;52.964;10.540;2023-04-01T05:21:20;8.80;99.90
16102;DHT22;56411;52.964;10.540;2023-04-01T05:23:47;8.80;99.90
16102;DHT22;56411;52.964;10.540;2023-04-01T05:26:14;8.80;99.90
16102;DHT22;56411;52.964;10.540;2023-04-01T05:28:42;8.80;99.90
16102;DHT22;56411;52.964;10.540;2023-04-01T05:31:09;8.90;99.90
16102;DHT22;56411;52.964;10.540;2023-04-01T05:33:38;8.90;99.90
16102;DHT22;56411;52.964;10.540;2023-04-01T05:36:07;9.00;99.90
16102;DHT22;56411;52.964;10.540;2023-04-01T05:38:34;9.00;99.90
16102;DHT22;56411;52.964;10.540;2023-04-01T05:41:03;9.00;99.90
16102;DHT22;56411;52.964;10.540;2023-04-01T05:43:31;9.00;99.90
16102;DHT22;56411;52.964;10.540;2023-04-01T05:46:01;9.10;99.90
16102;DHT22;56411;52.964;10.540;2023-04-01T05:48:28;9.10;99.90
16102;DHT22;56411;52.964;10.540;2023-04-01T05:50:57;9.20;99.90
16102;DHT22;56411;52.964;10.540;2023-04-01T05:53:24;9.20;99.90
16102;DHT22;56411;52.964;10.540;2023-04-01T05:55:52;9.20;99.90
16102;DHT22;56411;52.964;10.540;2023-04-01T05:58:19;9.30;99.90
16102;DHT22;56411;52.964;10.540;2023-04-01T06:00:46;9.30;99.90
16102;DHT22;56411;52.964;10.540;2023-04-01T06:03:14;9.40;99.90
16102;DHT22;56411;52.964;10.540;2023-04-01T06:05:43;9.40;99.90
16102;DHT22;56411;52.964;10.540;2023-04-01T06:08:13;9.40;99.90
16102;DHT22;56411;52.964;10.540;2023-04-01T06:10:53;9.50;99.90
16102;DHT22;56411;52.964;10.540;2023-04-01T06:13:33;9.50;99.90
16102;DHT22;56411;52.964;10.540;2023-04-01T06:16:09;9.50;99.90
16102;DHT22;56411;52.964;10.540;2023-04-01T06:18:59;9.60;99.90
16102;DHT22;56411;52.964;10.540;2023-04-01T06:21:51;9.60;99.90
16102;DHT22;56411;52.964;10.540;2023-04-01T06:24:35;9.70;99.90
16102;DHT22;56411;52.964;10.540;2023-04-01T06:27:16;9.80;99.90
16102;DHT22;56411;52.964;10.540;2023-04-01T06:33:27;10.00;99.90
16102;DHT22;56411;52.964;10.540;2023-04-01T06:49:11;10.20;99.90
16102;DHT22;56411;52.964;10.540;2023-04-01T06:50:07;10.40;99.90
16102;DHT22;56411;52.964;10.540;2023-04-01T06:53:16;10.50;99.90
16102;DHT22;56411;52.964;10.540;2023-04-01T06:56:39;10.60;99.90
16102;DHT22;56411;52.964;10.540;2023-04-01T06:59:22;10.80;99.90
16102;DHT22;56411;52.964;10.540;2023-04-01T07:05:41;11.00;99.90
16102;DHT22;56411;52.964;10.540;2023-04-01T07:15:20;11.30;99.90
16102;DHT22;56411;52.964;10.540;2023-04-01T07:17:53;11.40;99.90
16102;DHT22;56411;52.964;10.540;2023-04-01T07:20:25;11.30;99.90
16102;DHT22;56411;52.964;10.540;2023-04-01T07:22:56;11.30;99.90
16102;DHT22;56411;52.964;10.540;2023-04-01T07:25:27;11.40;99.90
16102;DHT22;56411;52.964;10.540;2023-04-01T07:28:04;11.30;99.90
16102;DHT22;56411;52.964;10.540;2023-04-01T07:30:44;11.40;99.90
16102;DHT22;56411;52.964;10.540;2023-04-01T07:33:19;11.50;99.90
16102;DHT22;56411;52.964;10.540;2023-04-01T07:35:54;11.60;99.90
16102;DHT22;56411;52.964;10.540;2023-04-01T07:38:35;11.80;99.90
16102;DHT22;56411;52.964;10.540;2023-04-01T07:41:11;11.90;99.90
16102;DHT22;56411;52.964;10.540;2023-04-01T07:44:00;12.10;99.90
16102;DHT22;56411;52.964;10.540;2023-04-01T07:46:49;12.30;99.90
16102;DHT22;56411;52.964;10.540;2023-04-01T07:49:25;12.40;99.90
16102;DHT22;56411;52.964;10.540;2023-04-01T07:51:58;12.50;99.90
16102;DHT22;56411;52.964;10.540;2023-04-01T07:54:32;12.50;99.90
16102;DHT22;56411;52.964;10.540;2023-04-01T07:57:08;12.60;99.90
16102;DHT22;56411;52.964;10.540;2023-04-01T07:59:45;12.60;99.90
16102;DHT22;56411;52.964;10.540;2023-04-01T08:02:24;12.50;99.90
16102;DHT22;56411;52.964;10.540;2023-04-01T08:05:00;12.40;99.90
16102;DHT22;56411;52.964;10.540;2023-04-01T08:07:44;12.40;99.90
16102;DHT22;56411;52.964;10.540;2023-04-01T08:10:18;12.40;99.90
16102;DHT22;56411;52.964;10.540;2023-04-01T08:12:52;12.40;99.90
16102;DHT22;56411;52.964;10.540;2023-04-01T08:15:27;12.40;99.90
16102;DHT22;56411;52.964;10.540;2023-04-01T08:18:16;12.40;99.90
16102;DHT22;56411;52.964;10.540;2023-04-01T08:20:50;12.30;99.90
16102;DHT22;56411;52.964;10.540;2023-04-01T08:23:21;12.30;99.90
16102;DHT22;56411;52.964;10.540;2023-04-01T08:25:52;12.40;99.90
16102;DHT22;56411;52.964;10.540;2023-04-01T08:28:25;12.80;99.90
16102;DHT22;56411;52.964;10.540;2023-04-01T08:30:58;13.00;99.90
16102;DHT22;56411;52.964;10.540;2023-04-01T08:33:30;13.20;99.90
16102;DHT22;56411;52.964;10.540;2023-04-01T08:36:03;13.40;99.90
16102;DHT22;56411;52.964;10.540;2023-04-01T08:38:37;13.50;99.90
16102;DHT22;56411;52.964;10.540;2023-04-01T08:41:35;13.50;99.90
16102;DHT22;56411;52.964;10.540;2023-04-01T08:50:56;13.30;99.90
16102;DHT22;56411;52.964;10.540;2023-04-01T08:53:41;12.70;99.90
16102;DHT22;56411;52.964;10.540;2023-04-01T08:56:17;11.80;99.90
16102;DHT22;56411;52.964;10.540;2023-04-01T08:58:57;11.20;99.90
16102;DHT22;56411;52.964;10.540;2023-04-01T09:04:32;10.10;99.90
16102;DHT22;56411;52.964;10.540;2023-04-01T09:07:15;9.70;99.90
16102;DHT22;56411;52.964;10.540;2023-04-01T09:10:12;9.40;99.90
16102;DHT22;56411;52.964;10.540;2023-04-01T09:15:48;9.00;99.90
16102;DHT22;56411;52.964;10.540;2023-04-01T09:18:28;8.80;99.90
16102;DHT22;56411;52.964;10.540;2023-04-01T09:21:23;8.60;99.90
16102;DHT22;56411;52.964;10.540;2023-04-01T09:24:13;8.60;99.90
16102;DHT22;56411;52.964;10.540;2023-04-01T09:27:04;8.60;99.90
16102;DHT22;56411;52.964;10.540;2023-04-01T09:29:49;8.60;99.90
16102;DHT22;56411;52.964;10.540;2023-04-01T09:35:21;8.50;99.90
16102;DHT22;56411;52.964;10.540;2023-04-01T09:37:54;8.40;99.90
16102;DHT22;56411;52.964;10.540;2023-04-01T09:40:34;8.50;99.90
16102;DHT22;56411;52.964;10.540;2023-04-01T09:43:23;8.50;99.90
16102;DHT22;56411;52.964;10.540;2023-04-01T09:46:16;8.50;99.90
16102;DHT22;56411;52.964;10.540;2023-04-01T09:51:55;8.50;99.90
16102;DHT22;56411;52.964;10.540;2023-04-01T09:54:47;8.50;99.90
16102;DHT22;56411;52.964;10.540;2023-04-01T09:57:52;8.50;99.90
16102;DHT22;56411;52.964;10.540;2023-04-01T10:00:48;8.40;99.90
16102;DHT22;56411;52.964;10.540;2023-04-01T10:06:43;8.50;99.90
16102;DHT22;56411;52.964;10.540;2023-04-01T10:09:50;8.50;99.90
16102;DHT22;56411;52.964;10.540;2023-04-01T10:12:50;8.50;99.90
16102;DHT22;56411;52.964;10.540;2023-04-01T10:15:44;8.40;99.90
16102;DHT22;56411;52.964;10.540;2023-04-01T10:18:35;8.50;99.90
16102;DHT22;56411;52.964;10.540;2023-04-01T10:21:39;8.40;99.90
16102;DHT22;56411;52.964;10.540;2023-04-01T10:24:22;8.30;99.90
16102;DHT22;56411;52.964;10.540;2023-04-01T10:27:10;8.20;99.90
16102;DHT22;56411;52.964;10.540;2023-04-01T10:30:18;8.30;99.90
16102;DHT22;56411;52.964;10.540;2023-04-01T10:33:17;8.30;99.90
16102;DHT22;56411;52.964;10.540;2023-04-01T10:36:11;8.20;99.90
16102;DHT22;56411;52.964;10.540;2023-04-01T10:42:06;8.10;99.90
16102;DHT22;56411;52.964;10.540;2023-04-01T10:48:25;8.20;99.90
16102;DHT22;56411;52.964;10.540;2023-04-01T10:51:24;8.20;99.90
16102;DHT22;56411;52.964;10.540;2023-04-01T10:54:17;8.20;99.90
16102;DHT22;56411;52.964;10.540;2023-04-01T10:56:56;8.20;99.90
16102;DHT22;56411;52.964;10.540;2023-04-01T10:59:48;8.20;99.90
16102;DHT22;56411;52.964;10.540;2023-04-01T11:11:57;8.30;99.90
16102;DHT22;56411;52.964;10.540;2023-04-01T11:15:08;8.30;99.90
16102;DHT22;56411;52.964;10.540;2023-04-01T11:21:25;8.30;99.90
16102;DHT22;56411;52.964;10.540;2023-04-01T11:27:00;8.30;99.90
16102;DHT22;56411;52.964;10.540;2023-04-01T11:32:42;8.20;99.90
16102;DHT22;56411;52.964;10.540;2023-04-01T11:38:47;8.00;99.90
16102;DHT22;56411;52.964;10.540;2023-04-01T11:41:30;8.00;99.90
16102;DHT22;56411;52.964;10.540;2023-04-01T11:44:14;8.00;99.90
16102;DHT22;56411;52.964;10.540;2023-04-01T11:46:50;8.00;99.90
16102;DHT22;56411;52.964;10.540;2023-04-01T11:49:33;7.90;99.90
16102;DHT22;56411;52.964;10.540;2023-04-01T11:55:24;7.90;99.90
16102;DHT22;56411;52.964;10.540;2023-04-01T11:58:11;7.90;99.90
16102;DHT22;56411;52.964;10.540;2023-04-01T12:04:35;7.90;99.90
16102;DHT22;56411;52.964;10.540;2023-04-01T12:07:15;8.00;99.90
16102;DHT22;56411;52.964;10.540;2023-04-01T12:09:52;7.90;99.90
16102;DHT22;56411;52.964;10.540;2023-04-01T12:12:32;7.90;99.90
16102;DHT22;56411;52.964;10.540;2023-04-01T12:15:16;8.00;99.90
16102;DHT22;56411;52.964;10.540;2023-04-01T12:17:50;7.90;99.90
16102;DHT22;56411;52.964;10.540;2023-04-01T12:20:28;7.90;99.90
16102;DHT22;56411;52.964;10.540;2023-04-01T12:23:07;7.80;99.90
16102;DHT22;56411;52.964;10.540;2023-04-01T12:26:00;7.80;99.90
16102;DHT22;56411;52.964;10.540;2023-04-01T12:31:50;7.70;99.90
16102;DHT22;56411;52.964;10.540;2023-04-01T12:34:59;7.60;99.90
16102;DHT22;56411;52.964;10.540;2023-04-01T12:37:39;7.70;99.90
16102;DHT22;56411;52.964;10.540;2023-04-01T12:40:24;7.60;99.90
16102;DHT22;56411;52.964;10.540;2023-04-01T12:43:04;7.60;99.90
16102;DHT22;56411;52.964;10.540;2023-04-01T12:45:42;7.50;99.90
16102;DHT22;56411;52.964;10.540;2023-04-01T12:48:47;7.50;99.90
16102;DHT22;56411;52.964;10.540;2023-04-01T13:01:00;7.70;99.90
16102;DHT22;56411;52.964;10.540;2023-04-01T13:03:47;7.70;99.90
16102;DHT22;56411;52.964;10.540;2023-04-01T13:06:38;7.60;99.90
16102;DHT22;56411;52.964;10.540;2023-04-01T13:09:20;7.50;99.90
16102;DHT22;56411;52.964;10.540;2023-04-01T13:12:05;7.50;99.90
16102;DHT22;56411;52.964;10.540;2023-04-01T13:15:05;7.40;99.90
16102;DHT22;56411;52.964;10.540;2023-04-01T13:17:45;7.50;99.90
16102;DHT22;56411;52.964;10.540;2023-04-01T13:20:24;7.40;99.90
16102;DHT22;56411;52.964;10.540;2023-04-01T13:23:05;7.30;99.90
16102;DHT22;56411;52.964;10.540;2023-04-01T13:25:39;7.30;99.90
16102;DHT22;56411;52.964;10.540;2023-04-01T13:28:14;7.30;99.90
16102;DHT22;56411;52.964;10.540;2023-04-01T13:30:47;7.30;99.90
16102;DHT22;56411;52.964;10.540;2023-04-01T13:33:24;7.30;99.90
16102;DHT22;56411;52.964;10.540;2023-04-01T13:36:03;7.30;99.90
16102;DHT22;56411;52.964;10.540;2023-04-01T13:38:57;7.30;99.90
16102;DHT22;56411;52.964;10.540;2023-04-01T13:41:44;7.20;99.90
16102;DHT22;56411;52.964;10.540;2023-04-01T13:44:20;7.20;99.90
16102;DHT22;56411;52.964;10.540;2023-04-01T13:47:07;7.10;99.90
16102;DHT22;56411;52.964;10.540;2023-04-01T13:50:19;7.10;99.90
16102;DHT22;56411;52.964;10.540;2023-04-01T13:53:26;7.00;99.90
16102;DHT22;56411;52.964;10.540;2023-04-01T13:56:07;7.00;99.90
16102;DHT22;56411;52.964;10.540;2023-04-01T13:59:03;7.00;99.90
16102;DHT22;56411;52.964;10.540;2023-04-01T14:01:39;6.90;99.90
16102;DHT22;56411;52.964;10.540;2023-04-01T14:07:16;6.90;99.90
16102;DHT22;56411;52.964;10.540;2023-04-01T14:10:03;6.90;99.90
16102;DHT22;56411;52.964;10.540;2023-04-01T14:12:38;6.90;99.90
16102;DHT22;56411;52.964;10.540;2023-04-01T14:15:26;6.90;99.90
16102;DHT22;56411;52.964;10.540;2023-04-01T14:21:11;6.70;99.90
16102;DHT22;56411;52.964;10.540;2023-04-01T14:24:01;6.70;99.90
16102;DHT22;56411;52.964;10.540;2023-04-01T14:27:06;6.60;99.90
16102;DHT22;56411;52.964;10.540;2023-04-01T14:29:39;6.60;99.90
16102;DHT22;56411;52.964;10.540;2023-04-01T14:32:16;6.60;99.90
16102;DHT22;56411;52.964;10.540;2023-04-01T14:38:04;6.50;99.90
16102;DHT22;56411;52.964;10.540;2023-04-01T14:40:49;6.40;99.90
16102;DHT22;56411;52.964;10.540;2023-04-01T14:43:47;6.40;99.90
16102;DHT22;56411;52.964;10.540;2023-04-01T14:46:29;6.40;99.90
16102;DHT22;56411;52.964;10.540;2023-04-01T14:49:52;6.40;99.90
16102;DHT22;56411;52.964;10.540;2023-04-01T14:52:31;6.30;99.90
16102;DHT22;56411;52.964;10.540;2023-04-01T14:55:31;6.40;99.90
16102;DHT22;56411;52.964;10.540;2023-04-01T15:01:35;6.30;99.90
16102;DHT22;56411;52.964;10.540;2023-04-01T15:15:20;6.20;99.90
16102;DHT22;56411;52.964;10.540;2023-04-01T15:18:03;6.10;99.90
16102;DHT22;56411;52.964;10.540;2023-04-01T15:20:49;6.10;99.90
16102;DHT22;56411;52.964;10.540;2023-04-01T15:23:25;6.10;99.90
16102;DHT22;56411;52.964;10.540;2023-04-01T15:29:01;6.10;99.90
16102;DHT22;56411;52.964;10.540;2023-04-01T15:31:34;6.00;99.90
16102;DHT22;56411;52.964;10.540;2023-04-01T15:34:26;6.00;99.90
16102;DHT22;56411;52.964;10.540;2023-04-01T15:36:59;5.90;99.90
16102;DHT22;56411;52.964;10.540;2023-04-01T15:39:40;5.80;99.90
16102;DHT22;56411;52.964;10.540;2023-04-01T15:42:32;5.90;99.90
16102;DHT22;56411;52.964;10.540;2023-04-01T15:45:17;5.80;99.90
16102;DHT22;56411;52.964;10.540;2023-04-01T15:47:52;5.80;99.90
16102;DHT22;56411;52.964;10.540;2023-04-01T15:50:46;5.70;99.90
16102;DHT22;56411;52.964;10.540;2023-04-01T15:53:49;5.70;99.90
16102;DHT22;56411;52.964;10.540;2023-04-01T15:56:28;5.70;99.90
16102;DHT22;56411;52.964;10.540;2023-04-01T15:59:11;5.80;99.90
16102;DHT22;56411;52.964;10.540;2023-04-01T16:01:46;5.80;99.90
16102;DHT22;56411;52.964;10.540;2023-04-01T16:07:39;5.70;99.90
16102;DHT22;56411;52.964;10.540;2023-04-01T16:10:36;5.60;99.90
16102;DHT22;56411;52.964;10.540;2023-04-01T16:13:22;5.50;99.90
16102;DHT22;56411;52.964;10.540;2023-04-01T16:16:00;5.50;99.90
16102;DHT22;56411;52.964;10.540;2023-04-01T16:18:45;5.50;99.90
16102;DHT22;56411;52.964;10.540;2023-04-01T16:21:24;5.50;99.90
16102;DHT22;56411;52.964;10.540;2023-04-01T16:23:59;5.50;99.90
16102;DHT22;56411;52.964;10.540;2023-04-01T16:26:35;5.50;99.90
16102;DHT22;56411;52.964;10.540;2023-04-01T16:29:09;5.50;99.90
16102;DHT22;56411;52.964;10.540;2023-04-01T16:31:43;5.50;99.90
16102;DHT22;56411;52.964;10.540;2023-04-01T16:34:17;5.50;99.90
16102;DHT22;56411;52.964;10.540;2023-04-01T16:36:48;5.40;99.90
16102;DHT22;56411;52.964;10.540;2023-04-01T16:39:30;5.50;99.90
16102;DHT22;56411;52.964;10.540;2023-04-01T16:42:24;5.40;99.90
16102;DHT22;56411;52.964;10.540;2023-04-01T16:44:55;5.40;99.90
16102;DHT22;56411;52.964;10.540;2023-04-01T16:47:29;5.30;99.90
16102;DHT22;56411;52.964;10.540;2023-04-01T16:50:00;5.30;99.90
16102;DHT22;56411;52.964;10.540;2023-04-01T16:52:43;5.30;99.90
16102;DHT22;56411;52.964;10.540;2023-04-01T16:55:18;5.30;99.90
16102;DHT22;56411;52.964;10.540;2023-04-01T16:57:50;5.20;99.90
16102;DHT22;56411;52.964;10.540;2023-04-01T17:00:25;5.20;99.90
16102;DHT22;56411;52.964;10.540;2023-04-01T17:03:02;5.20;99.90
16102;DHT22;56411;52.964;10.540;2023-04-01T17:05:48;5.10;99.90
16102;DHT22;56411;52.964;10.540;2023-04-01T17:11:12;5.10;99.90
16102;DHT22;56411;52.964;10.540;2023-04-01T17:13:47;5.00;99.90
16102;DHT22;56411;52.964;10.540;2023-04-01T17:19:46;4.90;99.90
16102;DHT22;56411;52.964;10.540;2023-04-01T17:22:27;4.90;99.90
16102;DHT22;56411;52.964;10.540;2023-04-01T17:25:14;4.80;99.90
16102;DHT22;56411;52.964;10.540;2023-04-01T17:27:50;4.80;99.90
16102;DHT22;56411;52.964;10.540;2023-04-01T17:30:26;4.80;99.90
16102;DHT22;56411;52.964;10.540;2023-04-01T17:35:58;4.70;99.90
16102;DHT22;56411;52.964;10.540;2023-04-01T17:38:42;4.70;99.90
16102;DHT22;56411;52.964;10.540;2023-04-01T17:41:24;4.70;99.90
16102;DHT22;56411;52.964;10.540;2023-04-01T17:44:00;4.70;99.90
16102;DHT22;56411;52.964;10.540;2023-04-01T17:46:37;4.70;99.90
16102;DHT22;56411;52.964;10.540;2023-04-01T17:49:19;4.60;99.90
16102;DHT22;56411;52.964;10.540;2023-04-01T17:51:55;4.60;99.90
16102;DHT22;56411;52.964;10.540;2023-04-01T17:54:30;4.60;99.90
16102;DHT22;56411;52.964;10.540;2023-04-01T17:57:19;4.60;99.90
16102;DHT22;56411;52.964;10.540;2023-04-01T17:59:57;4.50;99.90
16102;DHT22;56411;52.964;10.540;2023-04-01T18:02:31;4.40;99.90
16102;DHT22;56411;52.964;10.540;2023-04-01T18:05:26;4.40;99.90
16102;DHT22;56411;52.964;10.540;2023-04-01T18:08:05;4.40;99.90
16102;DHT22;56411;52.964;10.540;2023-04-01T18:10:41;4.30;99.90
16102;DHT22;56411;52.964;10.540;2023-04-01T18:13:36;4.30;99.90
16102;DHT22;56411;52.964;10.540;2023-04-01T18:16:21;4.30;99.90
16102;DHT22;56411;52.964;10.540;2023-04-01T18:18:59;4.30;99.90
16102;DHT22;56411;52.964;10.540;2023-04-01T18:21:36;4.30;99.90
16102;DHT22;56411;52.964;10.540;2023-04-01T18:24:16;4.20;99.90
16102;DHT22;56411;52.964;10.540;2023-04-01T18:26:49;4.20;99.90
16102;DHT22;56411;52.964;10.540;2023-04-01T18:29:26;4.20;99.90
16102;DHT22;56411;52.964;10.540;2023-04-01T18:32:08;4.20;99.90
16102;DHT22;56411;52.964;10.540;2023-04-01T18:34:51;4.20;99.90
16102;DHT22;56411;52.964;10.540;2023-04-01T18:37:25;4.10;99.90
16102;DHT22;56411;52.964;10.540;2023-04-01T18:39:58;4.10;99.90
16102;DHT22;56411;52.964;10.540;2023-04-01T18:42:33;4.10;99.90
16102;DHT22;56411;52.964;10.540;2023-04-01T18:45:17;4.10;99.90
16102;DHT22;56411;52.964;10.540;2023-04-01T18:47:54;4.10;99.90
16102;DHT22;56411;52.964;10.540;2023-04-01T18:50:26;4.00;99.90